Astroworld, Texas
Current Conditions -  °F | °C
As of 6:55 PM on Monday 26 Jan 2015 (Local Time) from KMCJ Reporting Station
Clear Clear  
Wind Chill: 64°   Ceiling: Unl
Heat Index: 64°   Visibility: 10mi
Dew Point: 34°   Wind: 5mph
Humidity: 32%   Direction: 210°SSW
Pressure: 30.13"   Gusts: NA
Location:  29.6867°N, 95.4345°W
Report Text: KMCJ 270055Z AUTO 21004KT 10SM CLR 18/01 A3013 RMK AO1
Loading
Personal Weather Stations






























Interactive Weather Map New forecast layout! Learn more

10-Day Weather Forecast

Advertisements
Track Severe Weather on mobile